createdAt,value
2022-09-23T00:01:03.626Z,26.13
2022-09-23T00:03:31.871Z,24.67
2022-09-23T00:06:04.606Z,24.10
2022-09-23T00:08:31.557Z,25.83
2022-09-23T00:11:03.820Z,25.23
2022-09-23T00:13:30.475Z,26.13
2022-09-23T00:15:57.095Z,25.60
2022-09-23T00:18:23.728Z,29.05
2022-09-23T00:20:50.360Z,28.30
2022-09-23T00:23:17.103Z,23.50
2022-09-23T00:25:43.746Z,24.15
2022-09-23T00:28:10.414Z,25.17
2022-09-23T00:30:37.102Z,26.17
2022-09-23T00:33:03.851Z,26.60
2022-09-23T00:35:30.496Z,23.67
2022-09-23T00:37:57.458Z,24.40
2022-09-23T00:40:24.407Z,26.48
2022-09-23T00:42:52.126Z,23.45
2022-09-23T00:45:19.486Z,23.48
2022-09-23T00:47:51.017Z,22.52
2022-09-23T00:50:24.560Z,25.67
2022-09-23T00:52:54.726Z,24.25
2022-09-23T00:55:26.694Z,25.30
2022-09-23T00:57:57.689Z,28.10
2022-09-23T01:00:24.968Z,23.60
2022-09-23T01:02:51.748Z,22.85
2022-09-23T01:05:18.953Z,22.52
2022-09-23T01:07:46.458Z,21.25
2022-09-23T01:10:15.780Z,23.77
2022-09-23T01:12:56.069Z,22.92
2022-09-23T01:15:44.722Z,22.10
2022-09-23T01:18:21.949Z,23.42
2022-09-23T01:21:07.020Z,24.05
2022-09-23T01:24:02.777Z,25.75
2022-09-23T01:27:14.148Z,22.17
2022-09-23T01:29:59.245Z,23.00
2022-09-23T01:32:43.854Z,23.05
2022-09-23T01:35:13.491Z,22.38
2022-09-23T01:37:51.418Z,22.13
2022-09-23T01:40:31.217Z,23.50
2022-09-23T01:43:07.718Z,21.88
2022-09-23T01:45:42.164Z,22.77
2022-09-23T01:48:21.388Z,23.60
2022-09-23T01:50:58.287Z,25.58
2022-09-23T01:53:49.521Z,24.67
2022-09-23T01:56:42.989Z,26.92
2022-09-23T01:59:28.108Z,22.55
2022-09-23T02:02:11.037Z,21.75
2022-09-23T02:04:52.017Z,21.50
2022-09-23T02:07:29.264Z,23.98
2022-09-23T02:10:16.657Z,25.30
2022-09-23T02:12:49.723Z,23.10
2022-09-23T02:15:24.927Z,22.83
2022-09-23T02:17:56.505Z,25.88
2022-09-23T02:20:29.564Z,21.90
2022-09-23T02:23:14.978Z,23.42
2022-09-23T02:26:07.708Z,23.55
2022-09-23T02:28:37.261Z,28.17
2022-09-23T02:31:27.916Z,24.73
2022-09-23T02:33:58.471Z,23.75
2022-09-23T02:39:01.261Z,26.85
2022-09-23T02:41:32.501Z,22.85
2022-09-23T02:44:04.960Z,31.17
2022-09-23T02:46:32.730Z,25.58
2022-09-23T02:49:01.164Z,30.50
2022-09-23T02:51:28.962Z,26.52
2022-09-23T02:53:57.158Z,24.90
2022-09-23T02:56:24.392Z,24.35
2022-09-23T02:58:55.078Z,27.85
2022-09-23T03:01:45.196Z,29.10
2022-09-23T03:04:38.848Z,24.77
2022-09-23T03:07:24.918Z,27.15
2022-09-23T03:10:11.492Z,22.45
2022-09-23T03:12:52.885Z,25.48
2022-09-23T03:15:57.301Z,25.70
2022-09-23T03:18:35.088Z,26.27
2022-09-23T03:21:07.394Z,25.10
2022-09-23T03:23:37.802Z,22.60
2022-09-23T03:28:41.964Z,26.55
2022-09-23T03:31:08.879Z,26.92
2022-09-23T03:33:38.656Z,28.60
2022-09-23T03:36:29.294Z,30.20
2022-09-23T03:41:34.900Z,28.07
2022-09-23T03:44:03.016Z,29.02
2022-09-23T03:46:30.184Z,30.23
2022-09-23T03:49:06.424Z,28.23
2022-09-23T03:51:33.078Z,34.17
2022-09-23T03:53:59.799Z,35.40
2022-09-23T03:56:26.593Z,28.77
2022-09-23T03:58:53.391Z,36.17
2022-09-23T04:01:21.205Z,33.63
2022-09-23T04:03:49.147Z,33.38
2022-09-23T04:06:15.973Z,34.70
2022-09-23T04:08:42.770Z,35.00
2022-09-23T04:11:09.567Z,34.90
2022-09-23T04:13:36.437Z,37.75
2022-09-23T04:16:03.400Z,37.58
2022-09-23T04:18:31.691Z,32.97
2022-09-23T04:21:02.603Z,33.60
2022-09-23T04:23:29.884Z,33.97
2022-09-23T04:25:56.747Z,33.08
2022-09-23T04:28:23.691Z,31.60
2022-09-23T04:30:50.877Z,30.35
2022-09-23T04:33:18.115Z,32.42
2022-09-23T04:35:44.951Z,35.30
2022-09-23T04:38:12.777Z,32.88
2022-09-23T04:40:40.057Z,33.92
2022-09-23T04:43:10.533Z,33.63
2022-09-23T04:45:39.775Z,38.15
2022-09-23T04:48:06.804Z,34.50
2022-09-23T04:50:33.994Z,34.25
2022-09-23T04:53:01.868Z,35.67
2022-09-23T04:55:29.517Z,38.83
2022-09-23T04:57:56.645Z,32.65
2022-09-23T05:00:24.242Z,37.03
2022-09-23T05:02:51.327Z,33.42
2022-09-23T05:05:23.618Z,38.22
2022-09-23T05:07:51.275Z,37.00
2022-09-23T05:10:18.411Z,34.08
2022-09-23T05:12:45.406Z,39.70
2022-09-23T05:15:13.160Z,35.08
2022-09-23T05:17:39.992Z,35.60
2022-09-23T05:20:08.361Z,34.47
2022-09-23T05:22:35.150Z,39.72
2022-09-23T05:25:02.385Z,39.08
2022-09-23T05:27:29.458Z,39.25
2022-09-23T05:29:56.283Z,38.95
2022-09-23T05:32:23.188Z,39.78
2022-09-23T05:34:50.111Z,36.20
2022-09-23T05:37:16.886Z,40.45
2022-09-23T05:39:43.741Z,40.35
2022-09-23T05:42:12.606Z,43.90
2022-09-23T05:44:39.384Z,49.92
2022-09-23T05:47:06.380Z,61.05
2022-09-23T05:49:55.261Z,53.13
2022-09-23T05:52:20.001Z,66.03
2022-09-23T05:54:47.046Z,57.40
2022-09-23T05:57:13.789Z,52.15
2022-09-23T05:59:40.595Z,51.55
2022-09-23T06:02:09.668Z,52.72
2022-09-23T06:04:36.589Z,55.33
2022-09-23T06:07:03.857Z,61.53
2022-09-23T06:09:35.626Z,52.85
2022-09-23T06:12:03.255Z,60.13
2022-09-23T06:14:30.055Z,63.13
2022-09-23T06:16:57.023Z,59.25
2022-09-23T06:19:24.001Z,53.38
2022-09-23T06:21:50.804Z,55.17
2022-09-23T06:24:20.822Z,55.25
2022-09-23T06:26:50.096Z,45.42
2022-09-23T06:29:18.225Z,41.63
2022-09-23T06:31:45.421Z,40.63
2022-09-23T06:34:14.426Z,43.65
2022-09-23T06:36:45.095Z,51.53
2022-09-23T06:39:14.506Z,49.35
2022-09-23T06:41:42.079Z,48.60
2022-09-23T06:44:09.067Z,51.90
2022-09-23T06:46:37.025Z,46.22
2022-09-23T06:49:04.049Z,49.55
2022-09-23T06:51:31.098Z,44.88
2022-09-23T06:53:58.087Z,44.85
2022-09-23T06:56:24.918Z,43.30
2022-09-23T06:58:52.693Z,42.75
2022-09-23T07:01:20.265Z,48.25
2022-09-23T07:03:48.487Z,43.92
2022-09-23T07:06:15.969Z,38.95
2022-09-23T07:08:45.229Z,34.15
2022-09-23T07:11:13.157Z,36.58
2022-09-23T07:13:41.479Z,37.88
2022-09-23T07:16:09.843Z,35.33
2022-09-23T07:18:37.741Z,31.20
2022-09-23T07:21:15.461Z,30.75
2022-09-23T07:23:46.998Z,35.95
2022-09-23T07:26:15.081Z,26.17
2022-09-23T07:28:42.086Z,22.77
2022-09-23T07:31:14.590Z,21.35
2022-09-23T07:33:45.331Z,25.98
2022-09-23T07:36:15.802Z,18.92
2022-09-23T07:41:31.330Z,23.77
2022-09-23T07:44:01.490Z,27.95
2022-09-23T07:46:42.819Z,23.63
2022-09-23T07:49:26.029Z,23.92
2022-09-23T07:52:12.185Z,32.53
2022-09-23T07:54:48.991Z,26.48
2022-09-23T07:57:33.944Z,27.48
2022-09-23T08:00:17.961Z,24.45
2022-09-23T08:02:53.153Z,24.58
2022-09-23T08:05:20.302Z,20.90
2022-09-23T08:07:50.656Z,17.20
2022-09-23T08:12:49.029Z,13.02
2022-09-23T08:15:17.303Z,13.63
2022-09-23T08:17:47.186Z,10.50
2022-09-23T08:20:34.186Z,13.25
2022-09-23T08:23:02.139Z,11.95
2022-09-23T08:25:31.973Z,12.25
2022-09-23T08:28:00.642Z,14.50
2022-09-23T08:30:27.477Z,8.10
2022-09-23T08:32:54.256Z,10.85
2022-09-23T08:35:21.214Z,11.80
2022-09-23T08:37:48.141Z,13.63
2022-09-23T08:40:16.062Z,13.65
2022-09-23T08:42:46.135Z,10.88
2022-09-23T08:45:20.174Z,11.43
2022-09-23T08:48:01.960Z,11.38
2022-09-23T08:50:51.729Z,9.77
2022-09-23T08:53:28.383Z,12.95
2022-09-23T08:55:57.943Z,12.15
2022-09-23T08:58:37.887Z,7.00
2022-09-23T09:01:12.976Z,8.05
2022-09-23T09:03:50.998Z,12.93
2022-09-23T09:06:41.912Z,15.40
2022-09-23T09:09:54.869Z,10.35
2022-09-23T09:12:32.419Z,8.52
2022-09-23T09:15:06.997Z,8.30
2022-09-23T09:18:08.182Z,8.27
2022-09-23T09:20:49.112Z,9.85
2022-09-23T09:23:31.688Z,7.10
2022-09-23T09:26:03.271Z,11.52
2022-09-23T09:28:41.865Z,10.82
2022-09-23T09:31:27.342Z,8.75
2022-09-23T09:34:05.697Z,13.55
2022-09-23T09:37:25.667Z,10.48
2022-09-23T09:40:05.992Z,8.23
2022-09-23T09:46:39.251Z,11.07
2022-09-23T09:49:23.439Z,12.48
2022-09-23T09:52:16.472Z,11.25
2022-09-23T09:58:13.320Z,17.67
2022-09-23T10:00:46.399Z,6.65
2022-09-23T10:03:13.552Z,8.23
2022-09-23T10:05:56.675Z,8.32
2022-09-23T10:08:37.358Z,7.57
2022-09-23T10:11:11.609Z,11.35
2022-09-23T10:13:39.847Z,8.68
2022-09-23T10:16:09.402Z,7.90
2022-09-23T10:18:48.160Z,6.90
2022-09-23T10:21:27.904Z,6.75
2022-09-23T10:23:58.838Z,5.65
2022-09-23T10:27:01.335Z,5.80
2022-09-23T10:29:56.511Z,9.95
2022-09-23T10:32:46.378Z,7.22
2022-09-23T10:35:28.642Z,9.35
2022-09-23T10:38:36.459Z,5.05
2022-09-23T10:41:36.428Z,5.80
2022-09-23T10:44:37.165Z,6.80
2022-09-23T10:47:11.527Z,6.78
2022-09-23T10:49:58.038Z,8.80
2022-09-23T10:52:53.491Z,9.07
2022-09-23T10:55:35.436Z,5.65
2022-09-23T10:58:24.849Z,5.10
2022-09-23T11:01:28.991Z,4.80
2022-09-23T11:04:14.639Z,5.47
2022-09-23T11:06:58.647Z,3.78
2022-09-23T11:09:54.094Z,5.38
2022-09-23T11:12:45.505Z,4.90
2022-09-23T11:16:05.854Z,3.47
2022-09-23T11:18:52.618Z,5.55
2022-09-23T11:21:44.818Z,7.30
2022-09-23T11:25:07.566Z,4.50
2022-09-23T11:31:27.057Z,4.72
2022-09-23T11:34:25.676Z,5.63
2022-09-23T11:37:24.629Z,11.77
2022-09-23T11:40:30.449Z,3.10
2022-09-23T11:43:26.777Z,5.43
2022-09-23T11:53:23.951Z,2.47
2022-09-23T11:56:35.309Z,5.45
2022-09-23T11:59:07.757Z,5.85
2022-09-23T12:02:22.194Z,6.03
2022-09-23T12:05:13.037Z,6.00
2022-09-23T12:11:24.057Z,2.60
2022-09-23T12:14:02.031Z,3.50
2022-09-23T12:20:42.726Z,2.05
2022-09-23T12:27:59.377Z,1.80
2022-09-23T12:31:25.453Z,1.58
2022-09-23T12:38:05.323Z,4.47
2022-09-23T12:40:57.365Z,2.88
2022-09-23T12:43:38.225Z,2.25
2022-09-23T12:46:30.219Z,2.83
2022-09-23T12:49:03.799Z,3.28
2022-09-23T12:52:13.844Z,3.30
2022-09-23T12:54:44.758Z,3.30
2022-09-23T12:57:32.738Z,3.58
2022-09-23T13:00:24.415Z,2.38
2022-09-23T13:03:14.092Z,4.88
2022-09-23T13:06:26.989Z,4.50
2022-09-23T13:08:57.623Z,6.15
2022-09-23T13:11:30.794Z,3.72
2022-09-23T13:14:02.455Z,6.35
2022-09-23T13:16:33.315Z,3.10
2022-09-23T13:19:38.582Z,3.00
2022-09-23T13:22:12.869Z,4.55
2022-09-23T13:24:46.997Z,5.13
2022-09-23T13:27:25.202Z,7.03
2022-09-23T13:30:04.279Z,1.83
2022-09-23T13:32:47.248Z,4.85
2022-09-23T13:35:14.119Z,2.75
2022-09-23T13:37:47.673Z,7.65
2022-09-23T13:40:27.177Z,2.30
2022-09-23T13:43:12.449Z,6.15
2022-09-23T13:45:43.027Z,2.00
2022-09-23T13:48:15.495Z,2.60
2022-09-23T13:50:50.753Z,1.85
2022-09-23T13:53:38.299Z,5.40
2022-09-23T13:56:15.477Z,3.22
2022-09-23T13:58:43.636Z,3.92
2022-09-23T14:01:34.786Z,4.95
2022-09-23T14:04:02.733Z,4.80
2022-09-23T14:06:32.075Z,3.63
2022-09-23T14:09:02.579Z,5.63
2022-09-23T14:11:35.440Z,6.35
2022-09-23T14:14:07.580Z,5.10
2022-09-23T14:16:38.403Z,5.57
2022-09-23T14:19:07.931Z,2.88
2022-09-23T14:21:39.835Z,6.20
2022-09-23T14:24:14.327Z,5.53
2022-09-23T14:26:44.212Z,4.72
2022-09-23T14:29:18.357Z,6.32
2022-09-23T14:31:56.894Z,3.55
2022-09-23T14:34:52.856Z,14.90
2022-09-23T14:37:44.116Z,9.18
2022-09-23T14:41:18.686Z,7.95
2022-09-23T14:43:52.823Z,5.53
2022-09-23T14:46:21.511Z,4.63
2022-09-23T14:48:58.974Z,5.90
2022-09-23T14:51:51.929Z,6.50
2022-09-23T14:54:36.061Z,8.40
2022-09-23T14:57:28.382Z,5.25
2022-09-23T15:00:01.238Z,6.57
2022-09-23T15:02:39.287Z,7.78
2022-09-23T15:05:13.115Z,6.70
2022-09-23T15:07:43.299Z,5.25
2022-09-23T15:10:23.485Z,7.70
2022-09-23T15:12:53.228Z,11.13
2022-09-23T15:15:24.264Z,10.93
2022-09-23T15:17:51.262Z,12.75
2022-09-23T15:20:21.821Z,20.92
2022-09-23T15:22:54.394Z,15.80
2022-09-23T15:25:28.452Z,13.70
2022-09-23T15:27:59.274Z,16.08
2022-09-23T15:30:26.235Z,16.60
2022-09-23T15:32:53.795Z,15.23
2022-09-23T15:35:25.177Z,11.05
2022-09-23T15:37:54.237Z,12.40
2022-09-23T15:40:24.578Z,11.05
2022-09-23T15:45:33.888Z,13.68
2022-09-23T15:48:23.032Z,7.97
2022-09-23T15:50:51.141Z,14.15
2022-09-23T15:53:24.505Z,11.32
2022-09-23T15:55:51.681Z,13.52
2022-09-23T15:58:20.476Z,15.02
2022-09-23T16:00:55.999Z,10.80
2022-09-23T16:03:30.937Z,15.90
2022-09-23T16:06:02.561Z,16.58
2022-09-23T16:08:32.337Z,18.73
2022-09-23T16:10:59.686Z,19.83
2022-09-23T16:13:26.547Z,11.88
2022-09-23T16:15:53.457Z,12.27
2022-09-23T16:18:20.736Z,11.68
2022-09-23T16:20:49.461Z,10.90
2022-09-23T16:23:35.268Z,16.08
2022-09-23T16:26:06.192Z,12.70
2022-09-23T16:28:38.098Z,12.32
2022-09-23T16:31:05.185Z,11.80
2022-09-23T16:33:32.121Z,12.82
2022-09-23T16:36:01.899Z,24.20
2022-09-23T16:38:29.708Z,17.63
2022-09-23T16:41:00.863Z,24.25
2022-09-23T16:43:32.798Z,20.00
2022-09-23T16:45:59.708Z,26.42
2022-09-23T16:48:27.053Z,41.85
2022-09-23T16:50:54.034Z,40.30
2022-09-23T16:53:20.918Z,21.50
2022-09-23T16:55:49.644Z,23.50
2022-09-23T16:58:16.505Z,28.35
2022-09-23T17:01:02.050Z,28.77
2022-09-23T17:03:42.449Z,24.85
2022-09-23T17:06:13.139Z,24.70
2022-09-23T17:08:43.347Z,32.15
2022-09-23T17:11:10.988Z,29.35
2022-09-23T17:13:40.525Z,28.85
2022-09-23T17:16:07.369Z,25.25
2022-09-23T17:18:34.545Z,27.35
2022-09-23T17:21:06.812Z,33.80
2022-09-23T17:23:35.624Z,37.22
2022-09-23T17:26:03.048Z,38.60
2022-09-23T17:28:29.836Z,36.83
2022-09-23T17:31:01.785Z,34.72
2022-09-23T17:33:31.310Z,29.20
2022-09-23T17:36:00.054Z,31.30
2022-09-23T17:38:29.390Z,28.73
2022-09-23T17:41:01.391Z,25.05
2022-09-23T17:43:31.711Z,26.52
2022-09-23T17:46:06.468Z,24.02
2022-09-23T17:48:38.690Z,20.48
2022-09-23T17:51:21.854Z,21.58
2022-09-23T17:53:50.093Z,23.15
2022-09-23T17:56:21.809Z,25.00
2022-09-23T17:58:49.885Z,34.97
2022-09-23T18:01:20.623Z,29.85
2022-09-23T18:03:48.354Z,27.50
2022-09-23T18:06:20.469Z,31.05
2022-09-23T18:08:49.879Z,32.28
2022-09-23T18:11:28.363Z,35.17
2022-09-23T18:14:03.972Z,29.75
2022-09-23T18:16:36.080Z,37.20
2022-09-23T18:19:04.234Z,36.97
2022-09-23T18:21:36.885Z,34.33
2022-09-23T18:24:30.917Z,30.05
2022-09-23T18:26:51.194Z,37.85
2022-09-23T18:29:19.055Z,32.33
2022-09-23T18:31:47.481Z,30.00
2022-09-23T18:34:16.876Z,31.38
2022-09-23T18:36:45.588Z,34.05
2022-09-23T18:39:12.887Z,30.10
2022-09-23T18:41:40.974Z,29.38
2022-09-23T18:44:09.216Z,25.88
2022-09-23T18:46:37.371Z,31.00
2022-09-23T18:49:40.217Z,32.45
2022-09-23T18:52:07.070Z,28.83
2022-09-23T18:54:34.111Z,32.72
2022-09-23T18:57:01.274Z,42.58
2022-09-23T18:59:29.642Z,46.03
2022-09-23T19:01:57.495Z,50.35
2022-09-23T19:04:26.360Z,49.38
2022-09-23T19:06:54.846Z,55.60
2022-09-23T19:09:22.817Z,51.45
2022-09-23T19:11:53.375Z,49.67
2022-09-23T19:14:20.516Z,51.78
2022-09-23T19:16:49.357Z,43.30
2022-09-23T19:19:16.592Z,42.67
2022-09-23T19:21:43.534Z,41.22
2022-09-23T19:24:14.402Z,48.03
2022-09-23T19:26:42.473Z,63.28
2022-09-23T19:29:14.481Z,49.97
2022-09-23T19:31:44.413Z,60.97
2022-09-23T19:34:21.232Z,63.17
2022-09-23T19:36:48.506Z,56.67
2022-09-23T19:39:25.052Z,54.53
2022-09-23T19:41:55.688Z,54.88
2022-09-23T19:44:24.414Z,56.08
2022-09-23T19:46:56.030Z,50.58
2022-09-23T19:49:24.999Z,49.95
2022-09-23T19:51:52.689Z,49.38
2022-09-23T19:54:21.075Z,52.60
2022-09-23T19:56:51.422Z,55.72
2022-09-23T19:59:19.414Z,51.95
2022-09-23T20:01:48.368Z,54.85
2022-09-23T20:04:16.027Z,56.53
2022-09-23T20:06:43.048Z,54.25
2022-09-23T20:09:10.162Z,66.30
2022-09-23T20:11:37.138Z,79.07
2022-09-23T20:14:06.247Z,53.75
2022-09-23T20:16:35.352Z,67.25
2022-09-23T20:19:05.160Z,74.70
2022-09-23T20:21:33.754Z,73.60
2022-09-23T20:24:01.238Z,78.75
2022-09-23T20:26:46.641Z,88.13
2022-09-23T20:29:15.884Z,81.90
2022-09-23T20:31:43.443Z,87.15
2022-09-23T20:34:11.061Z,94.28
2022-09-23T20:36:41.015Z,105.55
2022-09-23T20:39:09.703Z,95.35
2022-09-23T20:41:38.174Z,122.45
2022-09-23T20:44:08.071Z,121.47
2022-09-23T20:46:35.949Z,117.18
2022-09-23T20:49:03.939Z,109.82
2022-09-23T20:51:37.004Z,111.75
2022-09-23T20:54:04.208Z,102.78
2022-09-23T20:56:31.526Z,104.93
2022-09-23T20:59:02.391Z,73.28
2022-09-23T21:01:31.898Z,95.93
2022-09-23T21:03:58.664Z,81.00
2022-09-23T21:06:26.249Z,68.60
2022-09-23T21:08:54.626Z,69.72
2022-09-23T21:11:21.997Z,65.57
2022-09-23T21:13:51.288Z,62.92
2022-09-23T21:16:22.850Z,61.22
2022-09-23T21:18:51.001Z,67.10
2022-09-23T21:21:19.759Z,61.05
2022-09-23T21:23:47.731Z,59.97
2022-09-23T21:26:18.690Z,60.60
2022-09-23T21:28:49.868Z,56.70
2022-09-23T21:31:23.388Z,55.92
2022-09-23T21:34:01.356Z,60.05
2022-09-23T21:36:32.766Z,59.72
2022-09-23T21:39:01.850Z,62.70
2022-09-23T21:41:28.903Z,61.75
2022-09-23T21:43:56.313Z,64.13
2022-09-23T21:46:23.823Z,63.13
2022-09-23T21:48:53.676Z,68.35
2022-09-23T21:51:27.178Z,68.13
2022-09-23T21:53:56.830Z,70.00
2022-09-23T21:56:28.659Z,77.32
2022-09-23T21:58:57.054Z,72.68
2022-09-23T22:01:26.752Z,80.60
2022-09-23T22:04:05.068Z,81.85
2022-09-23T22:06:32.686Z,80.15
2022-09-23T22:09:02.154Z,80.97
2022-09-23T22:11:49.937Z,83.10
2022-09-23T22:14:18.541Z,90.13
2022-09-23T22:16:45.766Z,80.43
2022-09-23T22:19:13.850Z,81.82
2022-09-23T22:21:42.284Z,80.35
2022-09-23T22:24:10.662Z,80.15
2022-09-23T22:26:40.270Z,75.25
2022-09-23T22:29:27.593Z,83.37
2022-09-23T22:32:13.221Z,80.00
2022-09-23T22:34:51.550Z,76.10
2022-09-23T22:37:30.468Z,76.03
2022-09-23T22:39:57.398Z,82.85
2022-09-23T22:42:24.991Z,85.68
2022-09-23T22:44:52.289Z,90.85
2022-09-23T22:47:20.081Z,85.68
2022-09-23T22:49:47.374Z,79.03
2022-09-23T22:52:16.339Z,72.60
2022-09-23T22:54:43.342Z,69.38
2022-09-23T22:57:10.408Z,63.58
2022-09-23T22:59:37.663Z,62.28
2022-09-23T23:02:07.721Z,58.13
2022-09-23T23:04:36.532Z,61.13
2022-09-23T23:07:03.393Z,61.80
2022-09-23T23:09:30.663Z,63.55
2022-09-23T23:11:57.492Z,60.13
2022-09-23T23:14:24.411Z,66.05
2022-09-23T23:16:51.173Z,63.78
2022-09-23T23:19:19.251Z,57.03
2022-09-23T23:21:46.188Z,61.35
2022-09-23T23:24:18.585Z,61.22
2022-09-23T23:26:45.766Z,64.25
2022-09-23T23:29:14.685Z,59.42
2022-09-23T23:31:41.853Z,62.72
2022-09-23T23:34:12.141Z,60.60
2022-09-23T23:36:39.476Z,58.33
2022-09-23T23:39:07.884Z,59.45
2022-09-23T23:41:34.704Z,57.15
2022-09-23T23:44:02.060Z,62.30
2022-09-23T23:46:31.454Z,59.13
2022-09-23T23:48:59.277Z,60.97
2022-09-23T23:51:26.751Z,57.30
2022-09-23T23:53:54.829Z,59.67
2022-09-23T23:56:23.561Z,56.88
2022-09-23T23:59:02.577Z,61.42
